createdAt,value
2022-07-30T00:00:24.763Z,0
2022-07-30T00:05:21.197Z,0
2022-07-30T00:10:25.726Z,0
2022-07-30T00:15:30.233Z,0
2022-07-30T00:20:34.791Z,0
2022-07-30T00:25:38.333Z,0
2022-07-30T00:30:42.918Z,0
2022-07-30T00:35:47.405Z,0
2022-07-30T00:40:50.970Z,0
2022-07-30T00:45:55.554Z,0
2022-07-30T00:50:59.999Z,0
2022-07-30T00:56:03.546Z,0
2022-07-30T01:01:08.172Z,0
2022-07-30T01:06:14.221Z,0
2022-07-30T01:11:16.181Z,0
2022-07-30T01:16:20.759Z,0
2022-07-30T01:21:24.281Z,0
2022-07-30T01:26:28.803Z,0
2022-07-30T01:31:33.436Z,0
2022-07-30T01:36:36.891Z,0
2022-07-30T01:41:41.444Z,0
2022-07-30T01:46:45.958Z,0
2022-07-30T01:51:49.490Z,0
2022-07-30T01:56:54.043Z,0
2022-07-30T02:01:58.576Z,0
2022-07-30T02:07:03.553Z,0
2022-07-30T02:12:06.658Z,0
2022-07-30T02:17:18.929Z,0
2022-07-30T02:22:15.696Z,0
2022-07-30T02:27:19.237Z,0
2022-07-30T02:32:23.794Z,0
2022-07-30T02:37:41.588Z,0
2022-07-30T02:42:31.893Z,0
2022-07-30T02:47:36.429Z,0
2022-07-30T02:52:40.948Z,0
2022-07-30T02:57:44.530Z,0
2022-07-30T03:02:49.096Z,0
2022-07-30T03:07:53.536Z,0
2022-07-30T03:12:58.091Z,0
2022-07-30T03:18:01.636Z,4
2022-07-30T03:23:06.174Z,4
2022-07-30T03:28:10.672Z,8
2022-07-30T03:33:14.287Z,20
2022-07-30T03:38:18.758Z,36
2022-07-30T03:43:33.602Z,64
2022-07-30T03:48:26.877Z,112
2022-07-30T03:53:31.420Z,176
2022-07-30T03:58:36.257Z,268
2022-07-30T04:03:39.581Z,380
2022-07-30T04:08:44.039Z,528
2022-07-30T04:13:48.513Z,688
2022-07-30T04:18:53.051Z,976
2022-07-30T04:24:03.600Z,1300
2022-07-30T04:29:01.189Z,1560
2022-07-30T04:34:05.714Z,1912
2022-07-30T04:39:09.207Z,2292
2022-07-30T04:44:13.787Z,2668
2022-07-30T04:49:18.337Z,2884
2022-07-30T04:54:21.849Z,3264
2022-07-30T04:59:26.414Z,3408
2022-07-30T05:04:30.934Z,3540
2022-07-30T05:09:34.458Z,3532
2022-07-30T05:14:38.998Z,3824
2022-07-30T05:19:43.527Z,4112
2022-07-30T05:24:48.035Z,4512
2022-07-30T05:29:51.635Z,4828
2022-07-30T05:34:55.194Z,5116
2022-07-30T05:40:03.226Z,5596
2022-07-30T05:45:04.216Z,7152
2022-07-30T05:50:07.777Z,7608
2022-07-30T05:55:12.317Z,8012
2022-07-30T06:00:16.838Z,8364
2022-07-30T06:05:21.412Z,8780
2022-07-30T06:10:24.925Z,9136
2022-07-30T06:15:29.465Z,9500
2022-07-30T06:20:34.013Z,9904
2022-07-30T06:25:37.548Z,10304
2022-07-30T06:30:42.135Z,10712
2022-07-30T06:35:46.629Z,11104
2022-07-30T06:40:50.149Z,11408
2022-07-30T06:45:54.785Z,11824
2022-07-30T06:50:59.231Z,12448
2022-07-30T06:56:02.796Z,13496
2022-07-30T07:01:11.282Z,14832
2022-07-30T07:06:11.861Z,15840
2022-07-30T07:11:16.407Z,21568
2022-07-30T07:16:19.977Z,20448
2022-07-30T07:21:24.475Z,19232
2022-07-30T07:26:29.024Z,18848
2022-07-30T07:32:06.178Z,18880
2022-07-30T07:36:37.129Z,18880
2022-07-30T07:41:48.803Z,19744
2022-07-30T07:46:45.270Z,19360
2022-07-30T07:51:49.705Z,20800
2022-07-30T07:56:54.227Z,22880
2022-07-30T08:01:58.058Z,24480
2022-07-30T08:07:02.863Z,20960
2022-07-30T08:12:06.850Z,19680
2022-07-30T08:17:11.548Z,23808
2022-07-30T08:22:14.950Z,30624
2022-07-30T08:27:19.484Z,29248
2022-07-30T08:32:24.018Z,32608
2022-07-30T08:37:27.608Z,34304
2022-07-30T08:42:32.121Z,35392
2022-07-30T08:47:36.685Z,33568
2022-07-30T08:52:40.211Z,35968
2022-07-30T08:57:44.756Z,38752
2022-07-30T09:02:49.262Z,40064
2022-07-30T09:07:52.833Z,43200
2022-07-30T09:12:57.391Z,44128
2022-07-30T09:18:01.985Z,43648
2022-07-30T09:23:06.459Z,48768
2022-07-30T09:28:15.687Z,48192
2022-07-30T09:33:14.536Z,51616
2022-07-30T09:38:19.107Z,41120
2022-07-30T09:43:27.533Z,55328
2022-07-30T09:48:26.342Z,54592
2022-07-30T09:53:30.722Z,55648
2022-07-30T09:58:35.254Z,57152
2022-07-30T10:03:41.985Z,59872
2022-07-30T10:08:46.277Z,40128
2022-07-30T10:13:47.884Z,60064
2022-07-30T10:18:52.440Z,60864
2022-07-30T10:23:55.985Z,64640
2022-07-30T10:29:00.533Z,21248
2022-07-30T10:34:05.058Z,62016
2022-07-30T10:39:08.627Z,64128
2022-07-30T10:44:13.150Z,66304
2022-07-30T10:49:19.048Z,30080
2022-07-30T10:54:21.210Z,17172
2022-07-30T10:59:28.950Z,64128
2022-07-30T11:04:30.288Z,66656
2022-07-30T11:09:34.856Z,62624
2022-07-30T11:14:38.413Z,36672
2022-07-30T11:19:56.106Z,23328
2022-07-30T11:24:47.546Z,60864
2022-07-30T11:29:51.622Z,59040
2022-07-30T11:34:55.571Z,21312
2022-07-30T11:40:00.086Z,60480
2022-07-30T11:45:04.151Z,60832
2022-07-30T11:50:08.186Z,57504
2022-07-30T11:55:12.715Z,60160
2022-07-30T12:00:16.280Z,56192
2022-07-30T12:05:20.799Z,54368
2022-07-30T12:10:27.030Z,55744
2022-07-30T12:15:29.883Z,54272
2022-07-30T12:20:33.414Z,50464
2022-07-30T12:25:37.993Z,53984
2022-07-30T12:30:42.544Z,52064
2022-07-30T12:35:46.272Z,52256
2022-07-30T12:40:50.602Z,27456
2022-07-30T12:45:55.146Z,53440
2022-07-30T12:50:58.676Z,32480
2022-07-30T12:56:03.242Z,38432
2022-07-30T13:01:07.834Z,47872
2022-07-30T13:06:11.365Z,50464
2022-07-30T13:11:15.869Z,32800
2022-07-30T13:16:20.412Z,43296
2022-07-30T13:21:24.940Z,48224
2022-07-30T13:26:28.481Z,49088
2022-07-30T13:31:43.145Z,32736
2022-07-30T13:36:37.567Z,34752
2022-07-30T13:41:41.124Z,40256
2022-07-30T13:46:45.669Z,38976
2022-07-30T13:51:50.241Z,38976
2022-07-30T13:56:53.719Z,38112
2022-07-30T14:01:58.349Z,36512
2022-07-30T14:07:02.281Z,33952
2022-07-30T14:12:06.371Z,17152
2022-07-30T14:17:10.915Z,17504
2022-07-30T14:22:14.535Z,33664
2022-07-30T14:27:18.987Z,32896
2022-07-30T14:32:23.564Z,30208
2022-07-30T14:37:27.112Z,20320
2022-07-30T14:42:31.610Z,16800
2022-07-30T14:47:36.187Z,17408
2022-07-30T14:52:39.710Z,23616
2022-07-30T14:57:44.276Z,18432
2022-07-30T15:02:48.802Z,16736
2022-07-30T15:07:53.336Z,15936
2022-07-30T15:12:56.887Z,16064
2022-07-30T15:18:01.402Z,15680
2022-07-30T15:23:08.433Z,16128
2022-07-30T15:28:09.487Z,16928
2022-07-30T15:33:14.054Z,17984
2022-07-30T15:38:18.584Z,18912
2022-07-30T15:43:22.122Z,17856
2022-07-30T15:48:27.560Z,15520
2022-07-30T15:53:31.305Z,12144
2022-07-30T15:58:34.749Z,11872
2022-07-30T16:03:39.290Z,11012
2022-07-30T16:08:43.836Z,9588
2022-07-30T16:13:48.353Z,8460
2022-07-30T16:18:51.931Z,8412
2022-07-30T16:23:56.485Z,9384
2022-07-30T16:29:01.019Z,9828
2022-07-30T16:34:04.592Z,9576
2022-07-30T16:39:09.117Z,9032
2022-07-30T16:44:13.666Z,8544
2022-07-30T16:49:17.265Z,7508
2022-07-30T16:54:21.716Z,6620
2022-07-30T16:59:26.248Z,6032
2022-07-30T17:04:29.819Z,5912
2022-07-30T17:09:36.727Z,5676
2022-07-30T17:14:38.883Z,5416
2022-07-30T17:19:43.442Z,5408
2022-07-30T17:24:46.974Z,5668
2022-07-30T17:29:51.566Z,7152
2022-07-30T17:34:56.037Z,7736
2022-07-30T17:40:26.410Z,7748
2022-07-30T17:45:04.141Z,7160
2022-07-30T17:50:08.663Z,6328
2022-07-30T17:55:12.248Z,5676
2022-07-30T18:00:16.725Z,5172
2022-07-30T18:05:21.284Z,4700
2022-07-30T18:10:24.871Z,4240
2022-07-30T18:15:29.375Z,3704
2022-07-30T18:20:32.896Z,3460
2022-07-30T18:25:53.348Z,2672
2022-07-30T18:30:41.980Z,2468
2022-07-30T18:35:45.536Z,2092
2022-07-30T18:40:50.064Z,1780
2022-07-30T18:45:54.661Z,1376
2022-07-30T18:50:58.177Z,1092
2022-07-30T18:56:02.764Z,804
2022-07-30T19:01:07.321Z,560
2022-07-30T19:06:11.793Z,368
2022-07-30T19:11:15.304Z,236
2022-07-30T19:16:19.852Z,156
2022-07-30T19:21:24.409Z,100
2022-07-30T19:26:27.966Z,64
2022-07-30T19:31:32.489Z,36
2022-07-30T19:36:37.019Z,20
2022-07-30T19:41:40.979Z,12
2022-07-30T19:46:45.094Z,8
2022-07-30T19:52:17.516Z,4
2022-07-30T19:56:53.188Z,0
2022-07-30T20:01:57.721Z,0
2022-07-30T20:07:02.275Z,0
2022-07-30T20:12:06.790Z,0
2022-07-30T20:17:10.317Z,0
2022-07-30T20:22:14.861Z,0
2022-07-30T20:27:37.173Z,0
2022-07-30T20:32:22.946Z,0
2022-07-30T20:37:27.765Z,0
2022-07-30T20:42:31.993Z,0
2022-07-30T20:47:38.389Z,0
2022-07-30T20:52:40.127Z,0
2022-07-30T20:58:02.798Z,0
2022-07-30T21:02:48.176Z,0
2022-07-30T21:07:53.137Z,0
2022-07-30T21:13:03.500Z,0
2022-07-30T21:18:02.097Z,0
2022-07-30T21:23:05.337Z,0
2022-07-30T21:28:09.856Z,0
2022-07-30T21:33:14.340Z,0
2022-07-30T21:38:17.926Z,0
2022-07-30T21:43:29.343Z,0
2022-07-30T21:48:27.256Z,0
2022-07-30T21:53:44.904Z,0
2022-07-30T21:58:35.050Z,0
2022-07-30T22:04:02.986Z,0
2022-07-30T22:08:43.157Z,0
2022-07-30T22:13:53.523Z,0
2022-07-30T22:18:52.270Z,0
2022-07-30T22:29:00.311Z,0
2022-07-30T22:34:03.856Z,0
2022-07-30T22:39:08.822Z,0
2022-07-30T22:44:13.149Z,0
2022-07-30T22:49:25.260Z,0
2022-07-30T22:54:20.996Z,0
2022-07-30T22:59:57.733Z,0
2022-07-30T23:04:30.086Z,0
2022-07-30T23:09:36.808Z,0
2022-07-30T23:12:33.211Z,0
2022-07-30T23:14:38.156Z,0
2022-07-30T23:19:42.686Z,0
2022-07-30T23:24:46.222Z,0
2022-07-30T23:29:50.780Z,0
2022-07-30T23:34:55.297Z,0
2022-07-30T23:39:58.850Z,0
2022-07-30T23:45:03.378Z,0
2022-07-30T23:50:07.930Z,0
2022-07-30T23:55:11.521Z,0
